createdAt,value
2022-09-12T00:01:28.923Z,17.50
2022-09-12T00:03:00.631Z,17.48
2022-09-12T00:04:32.146Z,17.45
2022-09-12T00:06:08.020Z,17.41
2022-09-12T00:07:39.834Z,17.40
2022-09-12T00:09:12.328Z,17.36
2022-09-12T00:10:43.997Z,17.36
2022-09-12T00:12:15.984Z,17.32
2022-09-12T00:13:47.562Z,17.29
2022-09-12T00:15:19.163Z,17.27
2022-09-12T00:16:50.699Z,17.24
2022-09-12T00:18:22.170Z,17.22
2022-09-12T00:19:53.707Z,17.17
2022-09-12T00:21:25.650Z,17.13
2022-09-12T00:22:57.376Z,17.13
2022-09-12T00:24:28.959Z,17.11
2022-09-12T00:26:00.699Z,17.08
2022-09-12T00:27:32.252Z,17.06
2022-09-12T00:29:03.718Z,17.04
2022-09-12T00:30:35.472Z,17.01
2022-09-12T00:32:06.945Z,16.97
2022-09-12T00:33:38.561Z,16.97
2022-09-12T00:35:10.181Z,16.96
2022-09-12T00:36:41.767Z,16.92
2022-09-12T00:38:13.670Z,16.93
2022-09-12T00:39:45.162Z,16.91
2022-09-12T00:41:16.697Z,16.90
2022-09-12T00:42:48.209Z,16.89
2022-09-12T00:44:22.427Z,16.87
2022-09-12T00:45:54.564Z,16.85
2022-09-12T00:47:29.686Z,16.81
2022-09-12T00:49:01.369Z,16.81
2022-09-12T00:50:32.952Z,16.79
2022-09-12T00:52:04.637Z,16.77
2022-09-12T00:53:36.436Z,16.77
2022-09-12T00:55:10.081Z,16.73
2022-09-12T00:56:41.918Z,16.70
2022-09-12T00:58:36.287Z,16.68
2022-09-12T01:00:14.310Z,16.66
2022-09-12T01:01:46.008Z,16.65
2022-09-12T01:03:18.484Z,16.61
2022-09-12T01:04:50.264Z,16.56
2022-09-12T01:06:24.058Z,16.51
2022-09-12T01:07:56.480Z,16.48
2022-09-12T01:09:28.007Z,16.46
2022-09-12T01:10:59.496Z,16.45
2022-09-12T01:12:31.511Z,16.43
2022-09-12T01:14:03.031Z,16.38
2022-09-12T01:15:35.157Z,16.32
2022-09-12T01:17:06.648Z,16.27
2022-09-12T01:18:42.023Z,16.26
2022-09-12T01:20:46.254Z,16.22
2022-09-12T01:22:35.972Z,16.16
2022-09-12T01:24:31.046Z,16.09
2022-09-12T01:26:09.113Z,16.03
2022-09-12T01:27:40.742Z,15.96
2022-09-12T01:29:12.369Z,15.90
2022-09-12T01:31:02.352Z,15.85
2022-09-12T01:32:46.914Z,15.81
2022-09-12T01:34:20.870Z,15.80
2022-09-12T01:35:55.176Z,15.81
2022-09-12T01:37:33.479Z,15.83
2022-09-12T01:39:17.384Z,15.84
2022-09-12T01:40:52.019Z,15.86
2022-09-12T01:42:42.371Z,15.86
2022-09-12T01:44:15.456Z,15.83
2022-09-12T01:45:48.274Z,15.83
2022-09-12T01:47:43.006Z,15.82
2022-09-12T01:49:25.451Z,15.77
2022-09-12T01:51:00.410Z,15.74
2022-09-12T01:52:33.411Z,15.70
2022-09-12T01:54:20.844Z,15.66
2022-09-12T01:55:54.098Z,15.58
2022-09-12T01:57:27.979Z,15.56
2022-09-12T01:59:02.373Z,15.53
2022-09-12T02:00:34.817Z,15.49
2022-09-12T02:02:16.442Z,15.50
2022-09-12T02:03:52.688Z,15.50
2022-09-12T02:05:37.042Z,15.44
2022-09-12T02:07:11.770Z,15.43
2022-09-12T02:08:45.299Z,15.43
2022-09-12T02:10:20.843Z,15.43
2022-09-12T02:11:52.786Z,15.39
2022-09-12T02:13:36.258Z,15.37
2022-09-12T02:15:08.426Z,15.36
2022-09-12T02:16:40.256Z,15.41
2022-09-12T02:18:14.728Z,15.42
2022-09-12T02:19:51.562Z,15.40
2022-09-12T02:21:23.247Z,15.36
2022-09-12T02:22:55.210Z,15.34
2022-09-12T02:24:30.526Z,15.29
2022-09-12T02:26:03.826Z,15.26
2022-09-12T02:27:49.722Z,15.26
2022-09-12T02:29:21.365Z,15.25
2022-09-12T02:31:02.123Z,15.23
2022-09-12T02:32:38.251Z,15.21
2022-09-12T02:34:09.789Z,15.19
2022-09-12T02:35:52.417Z,15.18
2022-09-12T02:37:26.054Z,15.14
2022-09-12T02:38:57.936Z,15.09
2022-09-12T02:40:30.212Z,15.07
2022-09-12T02:42:01.965Z,15.03
2022-09-12T02:43:33.554Z,15.03
2022-09-12T02:45:05.525Z,15.02
2022-09-12T02:46:39.210Z,14.98
2022-09-12T02:48:21.575Z,14.97
2022-09-12T02:49:53.435Z,14.96
2022-09-12T02:51:25.114Z,14.96
2022-09-12T02:53:04.018Z,14.96
2022-09-12T02:54:35.561Z,14.95
2022-09-12T02:56:07.880Z,14.90
2022-09-12T02:57:39.508Z,14.83
2022-09-12T02:59:11.890Z,14.76
2022-09-12T03:01:03.928Z,14.68
2022-09-12T03:02:38.444Z,14.63
2022-09-12T03:04:28.471Z,14.62
2022-09-12T03:06:01.022Z,14.60
2022-09-12T03:07:38.632Z,14.58
2022-09-12T03:09:29.049Z,14.52
2022-09-12T03:11:19.386Z,14.45
2022-09-12T03:13:00.551Z,14.39
2022-09-12T03:14:37.889Z,14.36
2022-09-12T03:16:09.494Z,14.37
2022-09-12T03:17:47.209Z,14.38
2022-09-12T03:19:24.767Z,14.42
2022-09-12T03:21:02.465Z,14.44
2022-09-12T03:22:34.529Z,14.44
2022-09-12T03:24:06.073Z,14.42
2022-09-12T03:25:57.881Z,14.40
2022-09-12T03:27:30.396Z,14.36
2022-09-12T03:29:02.079Z,14.31
2022-09-12T03:30:47.069Z,14.27
2022-09-12T03:32:18.813Z,14.24
2022-09-12T03:33:50.502Z,14.23
2022-09-12T03:35:24.587Z,14.22
2022-09-12T03:36:56.121Z,14.25
2022-09-12T03:38:27.903Z,14.27
2022-09-12T03:39:59.459Z,14.26
2022-09-12T03:41:30.964Z,14.26
2022-09-12T03:43:02.836Z,14.25
2022-09-12T03:44:34.549Z,14.25
2022-09-12T03:46:06.258Z,14.21
2022-09-12T03:47:37.839Z,14.17
2022-09-12T03:49:09.330Z,14.13
2022-09-12T03:50:40.948Z,14.09
2022-09-12T03:52:12.564Z,14.05
2022-09-12T03:53:44.259Z,14.00
2022-09-12T03:55:16.017Z,13.99
2022-09-12T03:56:47.514Z,13.99
2022-09-12T03:58:19.045Z,14.02
2022-09-12T03:59:50.810Z,14.03
2022-09-12T04:01:22.481Z,14.08
2022-09-12T04:02:55.541Z,14.13
2022-09-12T04:04:27.234Z,14.15
2022-09-12T04:05:58.752Z,14.18
2022-09-12T04:07:30.332Z,14.22
2022-09-12T04:09:01.961Z,14.26
2022-09-12T04:10:33.471Z,14.29
2022-09-12T04:12:05.183Z,14.32
2022-09-12T04:13:36.894Z,14.33
2022-09-12T04:15:09.047Z,14.34
2022-09-12T04:16:40.575Z,14.34
2022-09-12T04:18:12.104Z,14.33
2022-09-12T04:19:43.672Z,14.35
2022-09-12T04:21:16.564Z,14.38
2022-09-12T04:22:48.070Z,14.38
2022-09-12T04:24:19.734Z,14.37
2022-09-12T04:25:57.512Z,14.34
2022-09-12T04:27:29.444Z,14.33
2022-09-12T04:29:00.958Z,14.29
2022-09-12T04:30:33.708Z,14.27
2022-09-12T04:32:05.359Z,14.24
2022-09-12T04:33:37.149Z,14.23
2022-09-12T04:35:09.048Z,14.23
2022-09-12T04:36:40.617Z,14.27
2022-09-12T04:38:12.106Z,14.28
2022-09-12T04:39:43.794Z,14.36
2022-09-12T04:41:15.712Z,14.43
2022-09-12T04:42:47.290Z,14.49
2022-09-12T04:44:18.901Z,14.60
2022-09-12T04:45:50.630Z,14.71
2022-09-12T04:47:23.255Z,14.79
2022-09-12T04:48:57.004Z,14.84
2022-09-12T04:50:28.989Z,14.90
2022-09-12T04:52:00.857Z,14.98
2022-09-12T04:53:32.830Z,15.00
2022-09-12T04:55:04.637Z,15.01
2022-09-12T04:56:39.324Z,15.03
2022-09-12T04:58:10.912Z,15.09
2022-09-12T04:59:42.811Z,15.14
2022-09-12T05:01:15.564Z,15.19
2022-09-12T05:02:47.349Z,15.28
2022-09-12T05:04:19.625Z,15.38
2022-09-12T05:05:54.508Z,15.49
2022-09-12T05:07:27.983Z,15.61
2022-09-12T05:08:59.824Z,15.73
2022-09-12T05:10:31.561Z,15.85
2022-09-12T05:12:04.986Z,15.98
2022-09-12T05:13:37.918Z,16.13
2022-09-12T05:15:09.873Z,16.25
2022-09-12T05:16:41.478Z,16.33
2022-09-12T05:18:13.066Z,16.38
2022-09-12T05:19:44.552Z,16.46
2022-09-12T05:21:16.811Z,16.53
2022-09-12T05:22:48.473Z,16.55
2022-09-12T05:24:19.971Z,16.61
2022-09-12T05:25:51.733Z,16.64
2022-09-12T05:27:23.550Z,16.67
2022-09-12T05:28:55.200Z,16.66
2022-09-12T05:30:27.067Z,16.64
2022-09-12T05:31:58.662Z,16.59
2022-09-12T05:33:30.501Z,16.55
2022-09-12T05:35:02.226Z,16.52
2022-09-12T05:36:34.016Z,16.57
2022-09-12T05:38:06.356Z,16.63
2022-09-12T05:39:37.950Z,16.68
2022-09-12T05:41:13.474Z,16.74
2022-09-12T05:42:48.550Z,16.79
2022-09-12T05:44:20.118Z,16.85
2022-09-12T05:45:51.754Z,16.94
2022-09-12T05:47:23.737Z,17.00
2022-09-12T05:48:56.576Z,17.06
2022-09-12T05:50:29.087Z,17.16
2022-09-12T05:52:00.704Z,17.32
2022-09-12T05:53:32.648Z,17.50
2022-09-12T05:55:04.599Z,17.63
2022-09-12T05:56:39.817Z,17.76
2022-09-12T05:58:11.324Z,17.90
2022-09-12T05:59:43.600Z,18.04
2022-09-12T06:01:15.837Z,18.13
2022-09-12T06:02:54.012Z,18.16
2022-09-12T06:04:25.621Z,18.22
2022-09-12T06:05:57.386Z,18.31
2022-09-12T06:07:30.107Z,18.32
2022-09-12T06:09:02.059Z,18.32
2022-09-12T06:10:35.579Z,18.31
2022-09-12T06:12:08.871Z,18.30
2022-09-12T06:13:40.503Z,18.31
2022-09-12T06:15:12.228Z,18.33
2022-09-12T06:16:43.978Z,18.33
2022-09-12T06:18:15.519Z,18.36
2022-09-12T06:19:47.141Z,18.33
2022-09-12T06:21:18.965Z,18.31
2022-09-12T06:22:53.390Z,18.30
2022-09-12T06:24:24.971Z,18.18
2022-09-12T06:25:56.643Z,18.06
2022-09-12T06:27:28.279Z,18.01
2022-09-12T06:29:00.482Z,18.05
2022-09-12T06:30:32.264Z,18.13
2022-09-12T06:39:57.286Z,18.45
2022-09-12T06:41:29.459Z,18.47
2022-09-12T06:43:01.044Z,18.57
2022-09-12T06:44:32.520Z,18.77
2022-09-12T06:46:04.161Z,18.99
2022-09-12T06:47:35.802Z,19.12
2022-09-12T06:49:08.263Z,19.20
2022-09-12T06:50:39.786Z,19.30
2022-09-12T06:52:11.547Z,19.42
2022-09-12T06:53:44.592Z,19.61
2022-09-12T06:55:19.794Z,19.58
2022-09-12T06:56:52.708Z,19.67
2022-09-12T06:58:24.858Z,19.79
2022-09-12T06:59:56.758Z,19.88
2022-09-12T07:01:29.242Z,19.91
2022-09-12T07:03:00.800Z,19.87
2022-09-12T07:04:33.905Z,19.84
2022-09-12T07:06:06.482Z,19.85
2022-09-12T07:07:38.323Z,19.87
2022-09-12T07:09:10.786Z,19.86
2022-09-12T07:10:42.450Z,19.83
2022-09-12T07:12:14.261Z,19.78
2022-09-12T07:13:46.693Z,19.75
2022-09-12T07:15:18.461Z,19.69
2022-09-12T07:16:50.883Z,19.65
2022-09-12T07:18:22.880Z,19.55
2022-09-12T07:19:54.812Z,19.49
2022-09-12T07:21:26.437Z,19.46
2022-09-12T07:22:58.030Z,19.42
2022-09-12T07:24:29.549Z,19.38
2022-09-12T07:26:01.727Z,19.37
2022-09-12T07:27:33.259Z,19.37
2022-09-12T07:29:32.258Z,19.35
2022-09-12T07:30:57.172Z,19.32
2022-09-12T07:32:28.693Z,19.31
2022-09-12T07:34:00.300Z,19.27
2022-09-12T07:35:33.779Z,19.28
2022-09-12T07:37:06.004Z,19.26
2022-09-12T07:38:38.036Z,19.25
2022-09-12T07:40:10.492Z,19.25
2022-09-12T07:41:42.233Z,19.21
2022-09-12T07:43:13.945Z,19.16
2022-09-12T07:44:46.164Z,19.17
2022-09-12T07:46:17.695Z,19.21
2022-09-12T07:47:49.672Z,19.25
2022-09-12T07:49:21.521Z,19.31
2022-09-12T07:51:01.796Z,19.31
2022-09-12T07:52:33.689Z,19.19
2022-09-12T07:54:08.574Z,19.26
2022-09-12T07:55:40.967Z,19.29
2022-09-12T07:57:12.750Z,19.32
2022-09-12T07:58:44.538Z,19.38
2022-09-12T08:00:16.665Z,19.47
2022-09-12T08:01:48.447Z,19.63
2022-09-12T08:03:20.364Z,19.82
2022-09-12T08:04:52.026Z,19.97
2022-09-12T08:06:25.560Z,20.12
2022-09-12T08:07:57.902Z,20.25
2022-09-12T08:09:30.845Z,20.46
2022-09-12T08:11:02.873Z,20.74
2022-09-12T08:12:34.903Z,20.96
2022-09-12T08:14:06.440Z,21.07
2022-09-12T08:15:38.080Z,21.16
2022-09-12T08:17:09.915Z,21.26
2022-09-12T08:18:41.695Z,21.34
2022-09-12T08:20:13.239Z,21.44
2022-09-12T08:21:45.019Z,21.53
2022-09-12T08:23:18.356Z,21.60
2022-09-12T08:24:49.975Z,21.71
2022-09-12T08:26:21.699Z,21.90
2022-09-12T08:27:53.557Z,22.07
2022-09-12T08:29:25.161Z,22.31
2022-09-12T08:31:03.946Z,22.53
2022-09-12T08:32:35.926Z,22.69
2022-09-12T08:34:08.419Z,22.72
2022-09-12T08:35:40.550Z,22.72
2022-09-12T08:37:12.793Z,22.69
2022-09-12T08:38:46.018Z,22.66
2022-09-12T08:40:19.029Z,22.64
2022-09-12T08:44:05.129Z,22.45
2022-09-12T08:45:43.491Z,22.36
2022-09-12T08:47:33.800Z,22.21
2022-09-12T08:49:05.446Z,22.05
2022-09-12T08:50:37.175Z,21.97
2022-09-12T08:52:15.845Z,22.05
2022-09-12T08:53:48.134Z,22.24
2022-09-12T08:55:26.712Z,22.39
2022-09-12T08:56:59.761Z,22.59
2022-09-12T08:58:32.270Z,22.73
2022-09-12T09:00:04.729Z,22.82
2022-09-12T09:01:38.590Z,22.77
2022-09-12T09:03:17.971Z,22.70
2022-09-12T09:04:53.145Z,22.56
2022-09-12T09:06:27.792Z,22.44
2022-09-12T09:08:21.373Z,22.39
2022-09-12T09:10:08.045Z,22.32
2022-09-12T09:11:42.993Z,22.35
2022-09-12T09:13:51.864Z,22.43
2022-09-12T09:15:29.774Z,22.66
2022-09-12T09:17:03.904Z,22.85
2022-09-12T09:18:38.566Z,23.03
2022-09-12T09:20:29.095Z,23.17
2022-09-12T09:22:03.228Z,23.26
2022-09-12T09:23:43.230Z,23.12
2022-09-12T09:25:23.074Z,23.00
2022-09-12T09:27:14.254Z,22.90
2022-09-12T09:28:57.584Z,22.83
2022-09-12T09:30:29.268Z,22.71
2022-09-12T09:32:01.196Z,22.65
2022-09-12T09:33:35.446Z,22.58
2022-09-12T09:35:25.766Z,22.46
2022-09-12T09:37:01.748Z,22.35
2022-09-12T09:38:54.203Z,22.34
2022-09-12T09:40:35.290Z,22.39
2022-09-12T09:42:13.474Z,22.48
2022-09-12T09:43:45.311Z,22.61
2022-09-12T09:45:20.986Z,22.74
2022-09-12T09:46:54.020Z,22.88
2022-09-12T09:48:27.088Z,23.00
2022-09-12T09:49:59.057Z,23.01
2022-09-12T09:51:34.585Z,23.06
2022-09-12T09:53:06.262Z,23.05
2022-09-12T09:54:41.692Z,23.06
2022-09-12T09:56:23.168Z,23.03
2022-09-12T09:57:55.042Z,23.00
2022-09-12T09:59:30.137Z,23.07
2022-09-12T10:01:02.684Z,23.17
2022-09-12T10:02:34.472Z,23.26
2022-09-12T10:04:07.570Z,23.31
2022-09-12T10:05:49.483Z,23.28
2022-09-12T10:07:21.986Z,23.27
2022-09-12T10:09:03.633Z,23.27
2022-09-12T10:10:35.358Z,23.18
2022-09-12T10:12:27.369Z,23.08
2022-09-12T10:14:01.609Z,23.06
2022-09-12T10:15:34.968Z,23.18
2022-09-12T10:17:23.342Z,23.28
2022-09-12T10:18:56.418Z,23.31
2022-09-12T10:20:30.627Z,23.30
2022-09-12T10:22:03.883Z,23.24
2022-09-12T10:23:41.429Z,23.11
2022-09-12T10:25:15.617Z,23.05
2022-09-12T10:26:53.262Z,23.01
2022-09-12T10:28:36.285Z,22.93
2022-09-12T10:30:17.781Z,22.89
2022-09-12T10:31:51.535Z,22.84
2022-09-12T10:33:23.586Z,22.80
2022-09-12T10:35:05.966Z,22.72
2022-09-12T10:36:38.912Z,22.74
2022-09-12T10:38:16.169Z,22.91
2022-09-12T10:39:54.813Z,23.15
2022-09-12T10:41:26.691Z,23.42
2022-09-12T10:43:01.245Z,23.72
2022-09-12T10:44:33.557Z,24.00
2022-09-12T10:46:24.423Z,24.21
2022-09-12T10:48:03.032Z,24.31
2022-09-12T10:49:40.487Z,24.20
2022-09-12T10:51:24.304Z,24.09
2022-09-12T10:52:59.474Z,23.85
2022-09-12T10:54:31.536Z,23.67
2022-09-12T10:56:06.942Z,23.55
2022-09-12T10:57:43.393Z,23.51
2022-09-12T10:59:34.383Z,23.51
2022-09-12T11:01:12.612Z,23.49
2022-09-12T11:02:44.263Z,23.45
2022-09-12T11:04:16.509Z,23.42
2022-09-12T11:05:48.318Z,23.35
2022-09-12T11:07:40.061Z,23.30
2022-09-12T11:09:29.959Z,23.30
2022-09-12T11:11:08.248Z,23.31
2022-09-12T11:13:00.123Z,23.43
2022-09-12T11:14:44.324Z,23.63
2022-09-12T11:16:15.979Z,23.84
2022-09-12T11:17:52.086Z,23.95
2022-09-12T11:19:29.845Z,23.94
2022-09-12T11:21:02.765Z,23.89
2022-09-12T11:22:53.170Z,23.91
2022-09-12T11:24:27.542Z,23.91
2022-09-12T11:26:04.868Z,23.83
2022-09-12T11:28:08.952Z,23.82
2022-09-12T11:29:40.569Z,23.82
2022-09-12T11:31:12.054Z,23.73
2022-09-12T11:32:43.908Z,23.67
2022-09-12T11:34:18.363Z,23.62
2022-09-12T11:35:54.949Z,23.69
2022-09-12T11:37:30.942Z,23.80
2022-09-12T11:39:11.771Z,23.86
2022-09-12T11:40:50.807Z,23.84
2022-09-12T11:42:24.164Z,23.73
2022-09-12T11:43:58.154Z,23.45
2022-09-12T11:45:30.539Z,23.30
2022-09-12T11:47:04.498Z,23.18
2022-09-12T11:48:43.101Z,23.04
2022-09-12T11:50:23.580Z,22.82
2022-09-12T11:52:15.795Z,22.70
2022-09-12T11:54:04.041Z,22.61
2022-09-12T11:55:55.804Z,22.58
2022-09-12T11:57:29.866Z,22.65
2022-09-12T11:59:03.964Z,22.74
2022-09-12T12:00:36.989Z,22.81
2022-09-12T12:02:12.012Z,22.85
2022-09-12T12:03:45.468Z,22.79
2022-09-12T12:05:21.080Z,22.72
2022-09-12T12:07:09.019Z,22.67
2022-09-12T12:08:41.903Z,22.59
2022-09-12T12:10:32.496Z,22.54
2022-09-12T12:12:06.725Z,22.63
2022-09-12T12:13:39.501Z,22.73
2022-09-12T12:15:14.246Z,22.64
2022-09-12T12:16:46.077Z,22.57
2022-09-12T12:18:23.357Z,22.44
2022-09-12T12:20:03.540Z,22.34
2022-09-12T12:21:43.907Z,22.34
2022-09-12T12:23:34.282Z,22.30
2022-09-12T12:25:08.745Z,22.24
2022-09-12T12:26:43.486Z,22.27
2022-09-12T12:28:15.007Z,22.36
2022-09-12T12:29:46.855Z,22.45
2022-09-12T12:31:18.681Z,22.57
2022-09-12T12:32:50.320Z,22.64
2022-09-12T12:34:23.723Z,22.68
2022-09-12T12:36:02.068Z,22.72
2022-09-12T12:37:40.145Z,22.69
2022-09-12T12:39:29.921Z,22.76
2022-09-12T12:41:16.958Z,22.79
2022-09-12T12:42:48.580Z,22.79
2022-09-12T12:44:38.916Z,22.75
2022-09-12T12:46:11.594Z,22.75
2022-09-12T12:47:44.041Z,22.74
2022-09-12T12:49:19.146Z,22.70
2022-09-12T12:50:51.006Z,22.64
2022-09-12T12:52:22.729Z,22.56
2022-09-12T12:53:54.433Z,22.54
2022-09-12T12:55:31.349Z,22.48
2022-09-12T12:57:14.788Z,22.46
2022-09-12T12:58:46.778Z,22.44
2022-09-12T13:00:21.686Z,22.41
2022-09-12T13:01:55.390Z,22.28
2022-09-12T13:03:28.747Z,22.19
2022-09-12T13:05:01.391Z,22.09
2022-09-12T13:06:36.691Z,21.94
2022-09-12T13:08:08.497Z,21.89
2022-09-12T13:09:44.587Z,21.88
2022-09-12T13:11:17.181Z,21.80
2022-09-12T13:12:49.710Z,21.77
2022-09-12T13:14:33.668Z,21.78
2022-09-12T13:16:05.827Z,21.77
2022-09-12T13:17:43.827Z,21.71
2022-09-12T13:19:24.771Z,21.66
2022-09-12T13:21:15.028Z,21.64
2022-09-12T13:22:47.634Z,21.46
2022-09-12T13:24:19.325Z,21.31
2022-09-12T13:25:54.721Z,21.11
2022-09-12T13:27:26.309Z,20.96
2022-09-12T13:29:16.276Z,20.87
2022-09-12T13:31:03.758Z,20.77
2022-09-12T13:32:35.627Z,20.65
2022-09-12T13:34:08.322Z,20.65
2022-09-12T13:35:43.572Z,20.66
2022-09-12T13:37:22.029Z,20.67
2022-09-12T13:38:56.863Z,20.73
2022-09-12T13:40:33.575Z,20.80
2022-09-12T13:42:05.197Z,20.84
2022-09-12T13:43:47.080Z,20.84
2022-09-12T13:45:23.955Z,20.87
2022-09-12T13:46:56.029Z,20.93
2022-09-12T13:48:27.908Z,21.03
2022-09-12T13:49:59.986Z,21.11
2022-09-12T13:51:32.605Z,21.24
2022-09-12T13:53:06.599Z,21.38
2022-09-12T13:54:38.601Z,21.45
2022-09-12T13:56:12.066Z,21.46
2022-09-12T13:57:43.818Z,21.42
2022-09-12T13:59:15.558Z,21.32
2022-09-12T14:00:48.135Z,21.17
2022-09-12T14:02:20.348Z,21.03
2022-09-12T14:04:28.210Z,20.94
2022-09-12T14:05:59.984Z,20.73
2022-09-12T14:07:31.775Z,20.61
2022-09-12T14:09:03.418Z,20.59
2022-09-12T14:10:35.795Z,20.64
2022-09-12T14:12:26.083Z,20.70
2022-09-12T14:13:58.238Z,20.74
2022-09-12T14:15:33.554Z,20.77
2022-09-12T14:17:24.599Z,20.81
2022-09-12T14:18:56.346Z,20.84
2022-09-12T14:20:34.203Z,20.88
2022-09-12T14:22:08.238Z,20.94
2022-09-12T14:23:42.950Z,20.99
2022-09-12T14:25:15.138Z,21.05
2022-09-12T14:26:47.723Z,21.09
2022-09-12T14:28:23.392Z,21.14
2022-09-12T14:30:09.147Z,21.18
2022-09-12T14:31:41.485Z,21.26
2022-09-12T14:33:13.090Z,21.29
2022-09-12T14:35:03.628Z,21.37
2022-09-12T14:36:42.524Z,21.46
2022-09-12T14:38:17.250Z,21.52
2022-09-12T14:39:49.171Z,21.54
2022-09-12T14:41:25.439Z,21.60
2022-09-12T14:43:01.085Z,21.66
2022-09-12T14:44:33.448Z,21.77
2022-09-12T14:46:06.247Z,21.79
2022-09-12T14:47:41.411Z,21.81
2022-09-12T14:49:15.757Z,21.92
2022-09-12T14:50:50.831Z,21.93
2022-09-12T14:52:35.022Z,21.83
2022-09-12T14:54:07.216Z,21.65
2022-09-12T14:55:54.010Z,21.53
2022-09-12T14:57:30.689Z,21.33
2022-09-12T14:59:21.038Z,21.13
2022-09-12T15:00:56.412Z,20.98
2022-09-12T15:02:28.048Z,20.91
2022-09-12T15:04:00.930Z,20.88
2022-09-12T15:05:33.256Z,20.92
2022-09-12T15:07:22.887Z,20.96
2022-09-12T15:08:55.369Z,21.03
2022-09-12T15:10:27.285Z,21.14
2022-09-12T15:11:58.788Z,21.19
2022-09-12T15:13:32.381Z,21.18
2022-09-12T15:15:13.800Z,21.10
2022-09-12T15:16:45.354Z,21.05
2022-09-12T15:18:16.978Z,20.95
2022-09-12T15:19:48.712Z,20.84
2022-09-12T15:21:20.414Z,20.84
2022-09-12T15:22:52.024Z,20.88
2022-09-12T15:24:23.879Z,20.92
2022-09-12T15:25:55.418Z,21.01
2022-09-12T15:27:26.904Z,21.05
2022-09-12T15:28:58.456Z,21.11
2022-09-12T15:30:30.194Z,21.14
2022-09-12T15:32:01.974Z,21.17
2022-09-12T15:33:33.551Z,21.23
2022-09-12T15:35:10.338Z,21.25
2022-09-12T15:36:41.907Z,21.27
2022-09-12T15:38:13.524Z,21.28
2022-09-12T15:39:46.878Z,21.31
2022-09-12T15:41:19.463Z,21.31
2022-09-12T15:42:50.973Z,21.31
2022-09-12T15:44:23.934Z,21.31
2022-09-12T15:45:55.575Z,21.28
2022-09-12T15:47:27.274Z,21.30
2022-09-12T15:48:58.843Z,21.32
2022-09-12T15:50:30.803Z,21.28
2022-09-12T15:52:02.503Z,21.25
2022-09-12T15:53:34.073Z,21.26
2022-09-12T15:55:06.138Z,21.31
2022-09-12T15:56:37.706Z,21.37
2022-09-12T15:58:09.580Z,21.43
2022-09-12T15:59:41.214Z,21.45
2022-09-12T16:01:13.472Z,21.46
2022-09-12T16:02:46.044Z,21.51
2022-09-12T16:04:24.565Z,21.51
2022-09-12T16:05:57.215Z,21.50
2022-09-12T16:07:28.775Z,21.50
2022-09-12T16:09:00.649Z,21.54
2022-09-12T16:10:32.199Z,21.57
2022-09-12T16:12:03.840Z,21.60
2022-09-12T16:13:35.739Z,21.59
2022-09-12T16:15:07.543Z,21.60
2022-09-12T16:16:39.127Z,21.57
2022-09-12T16:18:11.048Z,21.56
2022-09-12T16:19:42.867Z,21.53
2022-09-12T16:21:15.725Z,21.50
2022-09-12T16:22:48.037Z,21.47
2022-09-12T16:24:19.827Z,21.44
2022-09-12T16:25:58.313Z,21.40
2022-09-12T16:27:29.994Z,21.35
2022-09-12T16:29:01.824Z,21.28
2022-09-12T16:30:33.785Z,21.24
2022-09-12T16:32:05.915Z,21.20
2022-09-12T16:33:38.093Z,21.13
2022-09-12T16:35:09.932Z,21.05
2022-09-12T16:36:41.749Z,20.97
2022-09-12T16:38:13.259Z,20.94
2022-09-12T16:39:45.228Z,20.89
2022-09-12T16:41:17.440Z,20.82
2022-09-12T16:42:49.010Z,20.72
2022-09-12T16:44:20.715Z,20.66
2022-09-12T16:46:00.528Z,20.62
2022-09-12T16:47:32.598Z,20.55
2022-09-12T16:49:05.234Z,20.46
2022-09-12T16:50:36.741Z,20.38
2022-09-12T16:52:08.331Z,20.30
2022-09-12T16:53:39.858Z,20.23
2022-09-12T16:55:11.505Z,20.17
2022-09-12T16:56:43.345Z,20.10
2022-09-12T16:58:14.978Z,20.07
2022-09-12T16:59:46.635Z,19.93
2022-09-12T17:01:22.545Z,19.82
2022-09-12T17:02:54.576Z,19.76
2022-09-12T17:04:26.706Z,19.68
2022-09-12T17:06:01.719Z,19.63
2022-09-12T17:07:34.542Z,19.57
2022-09-12T17:09:06.475Z,19.47
2022-09-12T17:10:40.861Z,19.42
2022-09-12T17:12:12.465Z,19.39
2022-09-12T17:14:04.305Z,19.38
2022-09-12T17:15:37.919Z,19.32
2022-09-12T17:17:09.615Z,19.19
2022-09-12T17:18:41.084Z,19.12
2022-09-12T17:20:12.705Z,19.03
2022-09-12T17:21:45.120Z,18.94
2022-09-12T17:23:16.667Z,18.84
2022-09-12T17:24:48.351Z,18.79
2022-09-12T17:26:20.873Z,18.69
2022-09-12T17:27:52.477Z,18.61
2022-09-12T17:29:24.194Z,18.52
2022-09-12T17:30:56.945Z,18.48
2022-09-12T17:32:28.658Z,18.44
2022-09-12T17:34:01.162Z,18.41
2022-09-12T17:35:36.148Z,18.40
2022-09-12T17:37:07.653Z,18.37
2022-09-12T17:38:39.838Z,18.32
2022-09-12T17:40:12.363Z,18.30
2022-09-12T17:41:45.918Z,18.25
2022-09-12T17:43:17.808Z,18.19
2022-09-12T17:44:50.518Z,18.16
2022-09-12T17:46:22.369Z,18.11
2022-09-12T17:47:54.224Z,18.07
2022-09-12T17:49:26.099Z,18.02
2022-09-12T17:50:59.211Z,17.98
2022-09-12T17:52:30.875Z,17.99
2022-09-12T17:54:08.722Z,17.98
2022-09-12T17:55:42.276Z,18.00
2022-09-12T17:57:13.791Z,17.99
2022-09-12T17:58:45.287Z,17.98
2022-09-12T18:00:17.011Z,17.98
2022-09-12T18:02:07.572Z,17.96
2022-09-12T18:03:39.218Z,17.96
2022-09-12T18:05:10.757Z,17.96
2022-09-12T18:06:48.385Z,17.97
2022-09-12T18:08:20.278Z,17.95
2022-09-12T18:09:52.009Z,17.95
2022-09-12T18:11:23.599Z,17.93
2022-09-12T18:12:55.436Z,17.96
2022-09-12T18:14:27.887Z,17.94
2022-09-12T18:16:03.424Z,17.91
2022-09-12T18:17:35.429Z,17.89
2022-09-12T18:19:07.002Z,17.85
2022-09-12T18:20:38.580Z,17.82
2022-09-12T18:22:11.453Z,17.80
2022-09-12T18:23:43.261Z,17.78
2022-09-12T18:25:14.889Z,17.75
2022-09-12T18:26:46.416Z,17.72
2022-09-12T18:28:18.965Z,17.70
2022-09-12T18:30:10.326Z,17.71
2022-09-12T18:31:42.676Z,17.71
2022-09-12T18:33:14.195Z,17.71
2022-09-12T18:34:46.083Z,17.70
2022-09-12T18:36:17.873Z,17.68
2022-09-12T18:37:49.644Z,17.69
2022-09-12T18:39:25.361Z,17.67
2022-09-12T18:41:03.500Z,17.64
2022-09-12T18:42:35.328Z,17.62
2022-09-12T18:44:07.305Z,17.61
2022-09-12T18:45:38.848Z,17.54
2022-09-12T18:47:10.983Z,17.55
2022-09-12T18:48:42.569Z,17.53
2022-09-12T18:50:14.320Z,17.52
2022-09-12T18:51:45.985Z,17.51
2022-09-12T18:53:17.663Z,17.48
2022-09-12T18:54:49.249Z,17.46
2022-09-12T18:56:21.343Z,17.47
2022-09-12T18:57:53.059Z,17.52
2022-09-12T18:59:24.876Z,17.51
2022-09-12T19:00:56.776Z,17.50
2022-09-12T19:02:28.714Z,17.50
2022-09-12T19:04:01.174Z,17.52
2022-09-12T19:05:33.723Z,17.55
2022-09-12T19:07:05.593Z,17.56
2022-09-12T19:08:37.799Z,17.62
2022-09-12T19:10:09.363Z,17.59
2022-09-12T19:11:42.677Z,17.60
2022-09-12T19:13:14.312Z,17.59
2022-09-12T19:14:45.857Z,17.56
2022-09-12T19:16:18.646Z,17.43
2022-09-12T19:17:50.282Z,17.27
2022-09-12T19:19:21.958Z,17.14
2022-09-12T19:20:54.836Z,17.11
2022-09-12T19:22:27.681Z,17.03
2022-09-12T19:24:02.084Z,16.96
2022-09-12T19:25:35.037Z,16.87
2022-09-12T19:27:09.474Z,16.82
2022-09-12T19:28:41.888Z,16.75
2022-09-12T19:30:13.489Z,16.68
2022-09-12T19:31:45.155Z,16.68
2022-09-12T19:33:16.990Z,16.66
2022-09-12T19:34:48.574Z,16.68
2022-09-12T19:36:44.290Z,16.70
2022-09-12T19:38:13.598Z,16.72
2022-09-12T19:39:46.157Z,16.71
2022-09-12T19:41:19.124Z,16.69
2022-09-12T19:42:50.766Z,16.69
2022-09-12T19:44:23.748Z,16.69
2022-09-12T19:45:55.837Z,16.65
2022-09-12T19:47:27.525Z,16.65
2022-09-12T19:48:59.095Z,16.68
2022-09-12T19:50:33.745Z,16.69
2022-09-12T19:52:05.611Z,16.72
2022-09-12T19:53:38.424Z,16.75
2022-09-12T19:55:10.342Z,16.76
2022-09-12T19:56:42.120Z,16.78
2022-09-12T19:58:13.752Z,16.81
2022-09-12T19:59:46.230Z,16.79
2022-09-12T20:01:18.781Z,16.80
2022-09-12T20:02:51.557Z,16.82
2022-09-12T20:04:24.057Z,16.83
2022-09-12T20:06:01.713Z,16.86
2022-09-12T20:07:33.385Z,16.89
2022-09-12T20:09:05.102Z,16.89
2022-09-12T20:10:37.805Z,16.89
2022-09-12T20:12:09.397Z,16.88
2022-09-12T20:13:41.416Z,16.88
2022-09-12T20:15:13.020Z,16.86
2022-09-12T20:16:45.752Z,16.86
2022-09-12T20:18:17.273Z,16.82
2022-09-12T20:19:48.949Z,16.78
2022-09-12T20:21:20.921Z,16.77
2022-09-12T20:22:52.600Z,16.74
2022-09-12T20:24:24.309Z,16.68
2022-09-12T20:26:00.502Z,16.68
2022-09-12T20:27:32.087Z,16.67
2022-09-12T20:29:04.481Z,16.64